createdAt,value
2022-08-28T00:01:28.947Z,85.81
2022-08-28T00:03:56.174Z,85.42
2022-08-28T00:06:23.414Z,85.12
2022-08-28T00:08:50.611Z,86.73
2022-08-28T00:11:17.811Z,87.23
2022-08-28T00:13:45.483Z,85.89
2022-08-28T00:16:13.378Z,85.83
2022-08-28T00:18:40.709Z,86.04
2022-08-28T00:21:08.213Z,86.12
2022-08-28T00:23:42.846Z,84.92
2022-08-28T00:26:11.272Z,85.51
2022-08-28T00:28:38.551Z,85.24
2022-08-28T00:31:05.884Z,85.68
2022-08-28T00:33:34.190Z,85.70
2022-08-28T00:36:02.403Z,83.56
2022-08-28T00:38:29.827Z,83.56
2022-08-28T00:40:59.353Z,83.18
2022-08-28T00:43:35.547Z,82.19
2022-08-28T00:46:04.414Z,81.74
2022-08-28T00:48:32.901Z,81.03
2022-08-28T00:51:18.878Z,81.37
2022-08-28T00:53:46.339Z,81.30
2022-08-28T00:56:14.888Z,82.10
2022-08-28T00:58:43.327Z,84.64
2022-08-28T01:01:11.341Z,84.25
2022-08-28T01:03:38.575Z,84.17
2022-08-28T01:06:06.787Z,83.28
2022-08-28T01:08:35.313Z,83.77
2022-08-28T01:11:03.626Z,83.59
2022-08-28T01:13:31.210Z,82.71
2022-08-28T01:15:59.089Z,81.72
2022-08-28T01:18:27.682Z,82.00
2022-08-28T01:20:59.265Z,82.98
2022-08-28T01:23:41.162Z,83.03
2022-08-28T01:26:10.947Z,83.30
2022-08-28T01:28:39.788Z,83.01
2022-08-28T01:31:10.448Z,84.35
2022-08-28T01:33:39.310Z,82.20
2022-08-28T01:36:12.110Z,82.25
2022-08-28T01:38:40.456Z,82.98
2022-08-28T01:41:07.654Z,83.21
2022-08-28T01:43:34.917Z,83.11
2022-08-28T01:46:06.233Z,83.02
2022-08-28T01:48:36.091Z,84.61
2022-08-28T01:51:04.452Z,84.49
2022-08-28T01:53:33.083Z,83.57
2022-08-28T01:56:04.680Z,83.18
2022-08-28T01:58:37.906Z,83.47
2022-08-28T02:01:16.668Z,85.12
2022-08-28T02:03:43.970Z,86.35
2022-08-28T02:06:11.332Z,86.42
2022-08-28T02:08:38.800Z,84.96
2022-08-28T02:11:06.401Z,84.98
2022-08-28T02:13:35.829Z,84.83
2022-08-28T02:16:04.187Z,85.73
2022-08-28T02:18:31.800Z,84.16
2022-08-28T02:20:59.404Z,84.65
2022-08-28T02:23:26.740Z,84.86
2022-08-28T02:25:53.960Z,85.87
2022-08-28T02:28:21.345Z,86.30
2022-08-28T02:30:48.616Z,85.13
2022-08-28T02:33:16.310Z,84.09
2022-08-28T02:35:43.557Z,84.16
2022-08-28T02:38:10.870Z,84.74
2022-08-28T02:40:41.260Z,87.34
2022-08-28T02:43:08.544Z,88.25
2022-08-28T02:45:36.400Z,86.53
2022-08-28T02:48:04.272Z,85.88
2022-08-28T02:50:39.285Z,85.30
2022-08-28T02:53:06.510Z,85.94
2022-08-28T02:55:34.305Z,85.29
2022-08-28T02:58:02.105Z,84.66
2022-08-28T03:00:29.299Z,84.67
2022-08-28T03:02:56.584Z,85.28
2022-08-28T03:05:25.151Z,85.92
2022-08-28T03:07:56.260Z,87.90
2022-08-28T03:10:23.559Z,87.00
2022-08-28T03:12:51.783Z,86.08
2022-08-28T03:15:19.428Z,86.64
2022-08-28T03:17:47.959Z,86.76
2022-08-28T03:20:15.792Z,86.57
2022-08-28T03:23:01.726Z,86.12
2022-08-28T03:25:29.924Z,85.81
2022-08-28T03:27:57.553Z,84.94
2022-08-28T03:30:24.960Z,85.75
2022-08-28T03:32:52.272Z,88.04
2022-08-28T03:35:20.300Z,88.73
2022-08-28T03:37:47.880Z,89.68
2022-08-28T03:40:15.257Z,88.10
2022-08-28T03:42:42.842Z,87.61
2022-08-28T03:45:20.661Z,88.32
2022-08-28T03:47:47.893Z,88.34
2022-08-28T03:50:16.820Z,87.41
2022-08-28T03:52:44.205Z,86.79
2022-08-28T03:55:12.377Z,87.65
2022-08-28T03:57:39.917Z,87.78
2022-08-28T04:00:09.154Z,87.62
2022-08-28T04:02:43.046Z,88.11
2022-08-28T04:05:11.168Z,87.59
2022-08-28T04:07:40.138Z,88.33
2022-08-28T04:10:07.691Z,88.46
2022-08-28T04:12:36.100Z,88.07
2022-08-28T04:15:05.655Z,87.44
2022-08-28T04:17:34.510Z,87.34
2022-08-28T04:20:01.842Z,87.56
2022-08-28T04:22:30.400Z,87.14
2022-08-28T04:24:57.666Z,87.18
2022-08-28T04:27:24.956Z,88.15
2022-08-28T04:29:52.208Z,89.01
2022-08-28T04:32:19.516Z,88.73
2022-08-28T04:34:46.904Z,87.28
2022-08-28T04:37:15.191Z,86.50
2022-08-28T04:39:43.579Z,89.04
2022-08-28T04:42:11.199Z,90.50
2022-08-28T04:45:09.009Z,89.60
2022-08-28T04:47:40.590Z,88.63
2022-08-28T04:50:08.379Z,88.44
2022-08-28T04:52:35.808Z,88.62
2022-08-28T04:55:03.196Z,87.95
2022-08-28T04:57:34.524Z,87.53
2022-08-28T05:00:05.854Z,87.61
2022-08-28T05:02:33.132Z,86.54
2022-08-28T05:05:00.430Z,86.57
2022-08-28T05:07:27.694Z,86.66
2022-08-28T05:09:54.928Z,87.72
2022-08-28T05:12:22.198Z,87.40
2022-08-28T05:14:49.657Z,87.69
2022-08-28T05:17:16.982Z,87.18
2022-08-28T05:19:44.245Z,87.26
2022-08-28T05:22:11.526Z,86.29
2022-08-28T05:24:40.241Z,85.66
2022-08-28T05:27:08.698Z,85.61
2022-08-28T05:29:36.078Z,85.50
2022-08-28T05:32:03.785Z,85.35
2022-08-28T05:34:31.755Z,85.32
2022-08-28T05:36:59.228Z,85.42
2022-08-28T05:39:26.469Z,85.46
2022-08-28T05:41:53.732Z,85.76
2022-08-28T05:44:21.047Z,86.11
2022-08-28T05:46:48.529Z,86.92
2022-08-28T05:49:17.901Z,87.56
2022-08-28T05:51:45.526Z,86.18
2022-08-28T05:54:12.858Z,85.35
2022-08-28T05:56:40.697Z,86.68
2022-08-28T05:59:08.721Z,86.45
2022-08-28T06:01:39.080Z,84.16
2022-08-28T06:04:08.629Z,82.24
2022-08-28T06:06:37.139Z,80.84
2022-08-28T06:09:06.522Z,81.55
2022-08-28T06:11:33.875Z,80.40
2022-08-28T06:14:04.498Z,80.17
2022-08-28T06:16:32.415Z,80.39
2022-08-28T06:19:00.683Z,80.34
2022-08-28T06:21:28.613Z,78.85
2022-08-28T06:23:56.113Z,79.43
2022-08-28T06:26:23.526Z,79.99
2022-08-28T06:28:51.720Z,78.36
2022-08-28T06:31:23.427Z,76.42
2022-08-28T06:33:57.114Z,77.64
2022-08-28T06:36:25.370Z,79.25
2022-08-28T06:38:52.684Z,79.85
2022-08-28T06:41:19.880Z,79.80
2022-08-28T06:43:47.186Z,78.98
2022-08-28T06:46:14.678Z,77.57
2022-08-28T06:48:42.006Z,78.13
2022-08-28T06:51:10.888Z,76.30
2022-08-28T06:53:43.125Z,75.54
2022-08-28T06:56:11.265Z,74.35
2022-08-28T06:58:42.613Z,74.91
2022-08-28T07:01:22.751Z,73.56
2022-08-28T07:03:51.668Z,73.88
2022-08-28T07:06:20.162Z,72.06
2022-08-28T07:08:48.073Z,71.52
2022-08-28T07:11:26.593Z,71.52
2022-08-28T07:14:04.091Z,71.52
2022-08-28T07:16:33.462Z,70.76
2022-08-28T07:19:04.375Z,71.04
2022-08-28T07:21:33.325Z,68.88
2022-08-28T07:24:14.720Z,68.58
2022-08-28T07:26:43.657Z,68.31
2022-08-28T07:29:11.777Z,67.80
2022-08-28T07:31:42.957Z,68.06
2022-08-28T07:34:11.111Z,65.74
2022-08-28T07:36:38.538Z,66.52
2022-08-28T07:39:06.488Z,66.21
2022-08-28T07:41:35.648Z,66.26
2022-08-28T07:44:21.760Z,64.80
2022-08-28T07:46:52.828Z,64.45
2022-08-28T07:49:20.092Z,63.53
2022-08-28T07:51:47.322Z,62.56
2022-08-28T07:54:18.283Z,62.54
2022-08-28T07:56:46.295Z,62.15
2022-08-28T07:59:16.932Z,61.96
2022-08-28T08:01:46.576Z,62.80
2022-08-28T08:04:15.995Z,63.31
2022-08-28T08:06:43.887Z,63.45
2022-08-28T08:09:12.338Z,63.22
2022-08-28T08:11:39.483Z,63.09
2022-08-28T08:14:11.753Z,62.76
2022-08-28T08:16:41.068Z,61.79
2022-08-28T08:19:15.100Z,62.02
2022-08-28T08:21:43.822Z,61.06
2022-08-28T08:24:19.628Z,60.69
2022-08-28T08:26:54.079Z,61.22
2022-08-28T08:29:31.924Z,61.69
2022-08-28T08:32:05.099Z,61.43
2022-08-28T08:34:38.754Z,60.42
2022-08-28T08:37:06.921Z,59.06
2022-08-28T08:39:35.070Z,59.32
2022-08-28T08:42:03.575Z,56.77
2022-08-28T08:44:39.028Z,57.06
2022-08-28T08:47:07.853Z,55.57
2022-08-28T08:49:40.101Z,55.29
2022-08-28T08:52:17.024Z,55.43
2022-08-28T08:54:45.239Z,55.68
2022-08-28T08:57:14.774Z,54.75
2022-08-28T08:59:42.196Z,54.38
2022-08-28T09:02:14.753Z,53.63
2022-08-28T09:04:46.414Z,51.97
2022-08-28T09:07:16.541Z,45.84
2022-08-28T09:09:46.567Z,43.64
2022-08-28T09:12:15.705Z,41.76
2022-08-28T09:15:09.767Z,42.85
2022-08-28T09:17:39.502Z,46.22
2022-08-28T09:20:10.592Z,49.62
2022-08-28T09:22:37.901Z,47.96
2022-08-28T09:25:06.594Z,44.97
2022-08-28T09:27:35.929Z,43.36
2022-08-28T09:30:10.597Z,46.52
2022-08-28T09:32:41.432Z,49.35
2022-08-28T09:35:13.785Z,52.58
2022-08-28T09:37:41.813Z,52.98
2022-08-28T09:41:00.188Z,53.06
2022-08-28T09:43:28.151Z,55.04
2022-08-28T09:46:14.087Z,53.89
2022-08-28T09:48:45.565Z,53.90
2022-08-28T09:51:26.821Z,54.43
2022-08-28T09:53:57.409Z,52.92
2022-08-28T09:56:27.467Z,54.21
2022-08-28T09:59:13.961Z,53.25
2022-08-28T10:01:44.805Z,54.84
2022-08-28T10:04:19.351Z,54.48
2022-08-28T10:06:49.319Z,54.88
2022-08-28T10:09:33.715Z,54.60
2022-08-28T10:12:11.164Z,54.08
2022-08-28T10:14:48.326Z,54.74
2022-08-28T10:17:16.059Z,54.02
2022-08-28T10:19:53.661Z,54.34
2022-08-28T10:22:28.793Z,53.92
2022-08-28T10:25:06.768Z,54.95
2022-08-28T10:27:43.285Z,55.89
2022-08-28T10:30:14.126Z,55.50
2022-08-28T10:32:53.590Z,54.83
2022-08-28T10:35:23.933Z,54.75
2022-08-28T10:37:51.156Z,54.45
2022-08-28T10:40:38.702Z,55.37
2022-08-28T10:43:14.581Z,55.83
2022-08-28T10:45:42.274Z,55.49
2022-08-28T10:48:22.595Z,55.19
2022-08-28T10:51:00.061Z,55.13
2022-08-28T10:53:36.539Z,54.08
2022-08-28T10:56:09.033Z,54.44
2022-08-28T10:58:38.290Z,54.02
2022-08-28T11:01:08.923Z,55.00
2022-08-28T11:03:45.235Z,53.33
2022-08-28T11:06:22.598Z,53.89
2022-08-28T11:08:52.755Z,54.73
2022-08-28T11:11:39.924Z,53.34
2022-08-28T11:14:22.894Z,52.83
2022-08-28T11:16:50.573Z,52.73
2022-08-28T11:19:18.793Z,52.44
2022-08-28T11:21:49.329Z,52.50
2022-08-28T11:24:25.859Z,53.32
2022-08-28T11:27:12.595Z,51.89
2022-08-28T11:29:58.796Z,50.83
2022-08-28T11:32:28.719Z,52.10
2022-08-28T11:35:00.620Z,53.09
2022-08-28T11:37:39.574Z,53.75
2022-08-28T11:40:15.836Z,53.64
2022-08-28T11:42:43.204Z,51.56
2022-08-28T11:45:18.308Z,51.97
2022-08-28T11:47:47.082Z,52.85
2022-08-28T11:50:25.474Z,52.88
2022-08-28T11:53:01.926Z,53.16
2022-08-28T11:55:45.487Z,52.95
2022-08-28T11:58:20.619Z,52.81
2022-08-28T12:00:47.846Z,52.26
2022-08-28T12:03:31.967Z,53.08
2022-08-28T12:06:00.334Z,53.16
2022-08-28T12:08:48.958Z,52.70
2022-08-28T12:11:54.737Z,52.74
2022-08-28T12:14:22.035Z,52.68
2022-08-28T12:17:12.218Z,52.64
2022-08-28T12:19:52.465Z,52.50
2022-08-28T12:22:24.980Z,51.72
2022-08-28T12:24:54.989Z,52.28
2022-08-28T12:27:22.508Z,52.13
2022-08-28T12:30:00.282Z,51.88
2022-08-28T12:32:27.525Z,51.29
2022-08-28T12:34:57.456Z,52.57
2022-08-28T12:37:52.580Z,52.54
2022-08-28T12:40:20.492Z,51.24
2022-08-28T12:43:11.016Z,50.62
2022-08-28T12:45:50.055Z,51.66
2022-08-28T12:48:25.027Z,50.39
2022-08-28T12:50:58.617Z,50.17
2022-08-28T12:53:26.879Z,50.25
2022-08-28T12:55:55.964Z,50.99
2022-08-28T12:58:28.646Z,50.86
2022-08-28T13:00:58.176Z,51.99
2022-08-28T13:03:25.774Z,52.08
2022-08-28T13:06:07.536Z,50.19
2022-08-28T13:08:35.857Z,51.27
2022-08-28T13:11:03.493Z,51.22
2022-08-28T13:13:35.949Z,51.59
2022-08-28T13:16:10.211Z,51.44
2022-08-28T13:18:42.133Z,51.49
2022-08-28T13:21:22.560Z,50.82
2022-08-28T13:24:02.005Z,49.69
2022-08-28T13:26:33.167Z,50.33
2022-08-28T13:29:01.733Z,50.69
2022-08-28T13:31:33.776Z,49.74
2022-08-28T13:34:13.033Z,48.45
2022-08-28T13:36:42.484Z,48.54
2022-08-28T13:39:09.833Z,49.27
2022-08-28T13:41:37.656Z,48.75
2022-08-28T13:44:05.544Z,48.83
2022-08-28T13:46:32.882Z,49.67
2022-08-28T13:49:00.709Z,50.43
2022-08-28T13:51:27.985Z,49.85
2022-08-28T13:53:55.206Z,49.52
2022-08-28T13:56:24.503Z,48.78
2022-08-28T13:58:58.028Z,49.29
2022-08-28T14:01:48.421Z,48.84
2022-08-28T14:04:15.843Z,49.87
2022-08-28T14:06:44.442Z,50.58
2022-08-28T14:09:17.807Z,51.53
2022-08-28T14:11:46.035Z,50.41
2022-08-28T14:14:13.362Z,50.24
2022-08-28T14:16:40.653Z,50.53
2022-08-28T14:19:08.228Z,50.77
2022-08-28T14:21:37.025Z,48.82
2022-08-28T14:24:04.300Z,49.93
2022-08-28T14:26:31.917Z,50.81
2022-08-28T14:28:59.641Z,50.90
2022-08-28T14:31:27.285Z,50.77
2022-08-28T14:33:54.921Z,50.57
2022-08-28T14:36:23.605Z,49.82
2022-08-28T14:38:54.012Z,49.63
2022-08-28T14:41:22.756Z,50.07
2022-08-28T14:43:50.116Z,50.78
2022-08-28T14:46:18.184Z,50.11
2022-08-28T14:48:45.737Z,51.13
2022-08-28T14:51:12.967Z,50.19
2022-08-28T14:53:40.477Z,50.53
2022-08-28T14:56:08.485Z,50.67
2022-08-28T14:58:36.455Z,50.75
2022-08-28T15:01:04.484Z,51.80
2022-08-28T15:03:32.190Z,50.70
2022-08-28T15:06:03.553Z,51.79
2022-08-28T15:08:31.259Z,51.86
2022-08-28T15:10:58.703Z,52.19
2022-08-28T15:13:25.896Z,53.16
2022-08-28T15:16:43.977Z,52.72
2022-08-28T15:19:13.093Z,53.24
2022-08-28T15:21:48.581Z,53.54
2022-08-28T15:24:17.348Z,52.68
2022-08-28T15:26:45.880Z,52.80
2022-08-28T15:29:13.330Z,53.03
2022-08-28T15:31:42.579Z,53.76
2022-08-28T15:34:15.130Z,54.30
2022-08-28T15:36:44.027Z,54.40
2022-08-28T15:39:30.555Z,55.06
2022-08-28T15:41:58.546Z,54.77
2022-08-28T15:44:26.298Z,55.23
2022-08-28T15:46:58.060Z,55.35
2022-08-28T15:49:26.397Z,55.11
2022-08-28T15:51:53.873Z,55.79
2022-08-28T15:54:22.402Z,55.88
2022-08-28T15:56:52.733Z,56.89
2022-08-28T15:59:21.665Z,56.37
2022-08-28T16:01:51.653Z,56.24
2022-08-28T16:04:19.621Z,56.32
2022-08-28T16:06:46.974Z,55.99
2022-08-28T16:09:14.725Z,56.27
2022-08-28T16:11:43.923Z,56.60
2022-08-28T16:14:12.265Z,56.18
2022-08-28T16:16:40.085Z,56.86
2022-08-28T16:19:13.865Z,57.29
2022-08-28T16:21:41.921Z,56.83
2022-08-28T16:24:09.232Z,57.12
2022-08-28T16:26:36.400Z,57.68
2022-08-28T16:29:03.717Z,57.40
2022-08-28T16:31:34.223Z,57.63
2022-08-28T16:34:02.989Z,57.79
2022-08-28T16:36:31.088Z,57.92
2022-08-28T16:39:03.607Z,58.28
2022-08-28T16:41:31.906Z,58.85
2022-08-28T16:43:59.273Z,59.21
2022-08-28T16:46:27.927Z,58.47
2022-08-28T16:48:55.272Z,58.30
2022-08-28T16:51:26.802Z,58.11
2022-08-28T16:53:54.775Z,57.45
2022-08-28T16:56:23.711Z,56.71
2022-08-28T16:58:53.232Z,56.56
2022-08-28T17:01:24.158Z,56.62
2022-08-28T17:03:52.884Z,57.20
2022-08-28T17:06:23.593Z,57.54
2022-08-28T17:08:55.882Z,58.25
2022-08-28T17:11:25.374Z,58.34
2022-08-28T17:13:52.983Z,58.35
2022-08-28T17:16:21.295Z,58.27
2022-08-28T17:18:52.459Z,58.28
2022-08-28T17:21:39.790Z,58.40
2022-08-28T17:24:07.557Z,58.64
2022-08-28T17:26:34.850Z,58.51
2022-08-28T17:29:02.939Z,58.50
2022-08-28T17:31:30.247Z,59.01
2022-08-28T17:33:57.846Z,59.05
2022-08-28T17:36:33.081Z,59.35
2022-08-28T17:39:02.857Z,59.51
2022-08-28T17:41:30.088Z,59.04
2022-08-28T17:43:57.354Z,58.75
2022-08-28T17:46:25.756Z,58.84
2022-08-28T17:48:56.197Z,59.05
2022-08-28T17:51:40.449Z,59.25
2022-08-28T17:54:14.490Z,59.43
2022-08-28T17:56:42.004Z,59.96
2022-08-28T17:59:10.188Z,59.63
2022-08-28T18:01:38.545Z,59.67
2022-08-28T18:04:06.096Z,59.74
2022-08-28T18:06:33.349Z,59.46
2022-08-28T18:09:00.848Z,59.52
2022-08-28T18:11:28.498Z,58.73
2022-08-28T18:13:55.819Z,58.83
2022-08-28T18:16:26.509Z,59.60
2022-08-28T18:18:57.018Z,60.18
2022-08-28T18:21:24.529Z,59.95
2022-08-28T18:23:51.782Z,59.88
2022-08-28T18:26:19.078Z,59.87
2022-08-28T18:28:46.732Z,60.11
2022-08-28T18:31:14.057Z,60.64
2022-08-28T18:33:41.355Z,60.94
2022-08-28T18:36:09.405Z,61.05
2022-08-28T18:38:36.984Z,61.27
2022-08-28T18:41:05.268Z,61.49
2022-08-28T18:43:33.413Z,62.03
2022-08-28T18:46:01.923Z,62.11
2022-08-28T18:48:29.534Z,62.49
2022-08-28T18:50:56.725Z,63.03
2022-08-28T18:53:24.021Z,63.11
2022-08-28T18:55:52.686Z,63.13
2022-08-28T18:58:21.867Z,63.32
2022-08-28T19:00:49.501Z,63.52
2022-08-28T19:03:17.437Z,64.10
2022-08-28T19:05:44.725Z,64.15
2022-08-28T19:08:12.492Z,64.04
2022-08-28T19:10:40.113Z,64.49
2022-08-28T19:13:08.018Z,64.01
2022-08-28T19:15:35.896Z,63.77
2022-08-28T19:18:04.165Z,64.07
2022-08-28T19:20:32.232Z,64.09
2022-08-28T19:22:59.953Z,64.32
2022-08-28T19:25:29.432Z,64.31
2022-08-28T19:27:59.084Z,64.22
2022-08-28T19:30:28.663Z,64.53
2022-08-28T19:32:55.892Z,65.08
2022-08-28T19:35:24.615Z,65.26
2022-08-28T19:37:52.543Z,65.34
2022-08-28T19:40:20.718Z,65.54
2022-08-28T19:42:49.923Z,65.53
2022-08-28T19:45:17.903Z,65.47
2022-08-28T19:47:45.469Z,64.98
2022-08-28T19:50:13.958Z,65.06
2022-08-28T19:52:43.108Z,65.02
2022-08-28T19:55:17.417Z,64.85
2022-08-28T19:57:45.647Z,64.79
2022-08-28T20:00:15.050Z,64.97
2022-08-28T20:02:42.383Z,65.49
2022-08-28T20:05:10.272Z,65.73
2022-08-28T20:07:37.702Z,65.69
2022-08-28T20:10:05.833Z,65.90
2022-08-28T20:12:33.610Z,63.73
2022-08-28T20:15:03.668Z,64.10
2022-08-28T20:17:31.276Z,63.46
2022-08-28T20:20:02.456Z,64.05
2022-08-28T20:22:32.035Z,64.11
2022-08-28T20:24:59.888Z,64.08
2022-08-28T20:27:28.151Z,63.93
2022-08-28T20:29:55.833Z,64.00
2022-08-28T20:32:23.025Z,62.62
2022-08-28T20:34:50.250Z,61.91
2022-08-28T20:37:17.526Z,61.29
2022-08-28T20:39:45.003Z,60.49
2022-08-28T20:42:13.653Z,59.46
2022-08-28T20:44:40.829Z,59.47
2022-08-28T20:47:08.094Z,59.45
2022-08-28T20:49:39.251Z,59.93
2022-08-28T20:52:06.875Z,60.18
2022-08-28T20:54:36.978Z,59.57
2022-08-28T20:57:11.768Z,59.37
2022-08-28T20:59:40.621Z,59.41
2022-08-28T21:02:18.422Z,59.26
2022-08-28T21:04:46.273Z,59.99
2022-08-28T21:07:14.734Z,60.58
2022-08-28T21:10:03.829Z,61.52
2022-08-28T21:12:29.168Z,61.98
2022-08-28T21:14:56.412Z,62.56
2022-08-28T21:17:29.821Z,63.62
2022-08-28T21:20:03.178Z,64.60
2022-08-28T21:22:32.425Z,65.41
2022-08-28T21:25:00.795Z,64.70
2022-08-28T21:27:28.429Z,63.79
2022-08-28T21:29:58.085Z,63.37
2022-08-28T21:32:26.296Z,63.12
2022-08-28T21:34:54.562Z,59.60
2022-08-28T21:37:22.372Z,57.96
2022-08-28T21:39:49.706Z,56.67
2022-08-28T21:42:16.999Z,54.58
2022-08-28T21:44:46.074Z,54.16
2022-08-28T21:47:21.458Z,53.98
2022-08-28T21:49:50.120Z,54.35
2022-08-28T21:52:18.377Z,54.28
2022-08-28T21:54:45.644Z,54.44
2022-08-28T21:57:12.857Z,55.30
2022-08-28T21:59:40.093Z,55.39
2022-08-28T22:02:07.442Z,55.37
2022-08-28T22:04:34.927Z,54.40
2022-08-28T22:07:02.221Z,54.97
2022-08-28T22:09:29.503Z,55.55
2022-08-28T22:11:57.199Z,55.53
2022-08-28T22:14:25.233Z,55.54
2022-08-28T22:16:52.573Z,55.60
2022-08-28T22:19:19.861Z,56.96
2022-08-28T22:22:05.768Z,56.90
2022-08-28T22:24:33.366Z,57.19
2022-08-28T22:27:00.590Z,58.31
2022-08-28T22:29:30.041Z,57.89
2022-08-28T22:31:57.379Z,58.08
2022-08-28T22:34:24.710Z,58.03
2022-08-28T22:36:52.010Z,57.09
2022-08-28T22:39:19.224Z,57.10
2022-08-28T22:41:46.430Z,55.95
2022-08-28T22:44:13.712Z,55.98
2022-08-28T22:46:40.959Z,57.69
2022-08-28T22:49:08.267Z,56.43
2022-08-28T22:51:35.546Z,56.70
2022-08-28T22:54:03.073Z,55.98
2022-08-28T22:56:30.325Z,56.37
2022-08-28T22:58:57.564Z,58.18
2022-08-28T23:01:25.333Z,59.33
2022-08-28T23:03:52.727Z,60.19
2022-08-28T23:06:21.628Z,60.69
2022-08-28T23:08:48.871Z,60.82
2022-08-28T23:11:16.124Z,61.15
2022-08-28T23:13:43.334Z,60.16
2022-08-28T23:16:10.688Z,59.47
2022-08-28T23:19:06.823Z,59.94
2022-08-28T23:21:26.383Z,61.24
2022-08-28T23:23:54.984Z,60.91
2022-08-28T23:26:22.365Z,60.71
2022-08-28T23:28:49.626Z,61.17
2022-08-28T23:31:16.954Z,60.76
2022-08-28T23:33:44.228Z,60.09
2022-08-28T23:36:11.483Z,60.13
2022-08-28T23:38:42.908Z,61.69
2022-08-28T23:41:11.236Z,61.87
2022-08-28T23:43:38.660Z,62.48
2022-08-28T23:46:06.606Z,64.31
2022-08-28T23:48:35.297Z,65.19
2022-08-28T23:51:02.702Z,65.28
2022-08-28T23:53:30.712Z,64.83
2022-08-28T23:55:59.453Z,64.99
2022-08-28T23:58:31.785Z,66.09
